This is the latest recevied weather packets stored in our database for station/object N0EDB-13. If no packets are shown the sender has not sent any weather packets the latest 10 day(s).
| Time | Temp. | Humidity | Pressure | Rain* | Wind** | Luminosity | Snow |
|---|---|---|---|---|---|---|---|
| 1777760922 | 24.44° C | 12% | 1464.7 hPa | 0 mm | - | 623 W/m² | - |
| 1777760621 | 24.44° C | 12% | 1464.3 hPa | 0 mm | - | 638 W/m² | - |
| 1777760321 | 24.44° C | 12% | 1464.9 hPa | 0 mm | - | 654 W/m² | - |
| 1777760020 | 23.89° C | 12% | 1465.8 hPa | 0 mm | - | 669 W/m² | - |
| 1777759720 | 23.89° C | 13% | 1466.3 hPa | 0 mm | - | 686 W/m² | - |
| 1777759420 | 24.44° C | 13% | 1465.1 hPa | 0 mm | - | 703 W/m² | - |
| 1777759118 | 24.44° C | 12% | 1465.2 hPa | 0 mm | - | 717 W/m² | - |
| 1777758817 | 24.44° C | 13% | 1465.7 hPa | 0 mm | - | 732 W/m² | - |
| 1777758517 | 24.44° C | 13% | 1465.3 hPa | 0 mm | - | 746 W/m² | - |
| 1777758216 | 24.44° C | 13% | 1465.9 hPa | 0 mm | - | 761 W/m² | - |
| 1777757915 | 24.44° C | 13% | 1466.3 hPa | 0 mm | - | 776 W/m² | - |
| 1777757615 | 23.89° C | 14% | 1467 hPa | 0 mm | - | 788 W/m² | - |
| 1777757314 | 23.89° C | 15% | 1467.3 hPa | 0 mm | - | 801 W/m² | - |
| 1777757013 | 23.33° C | 15% | 1468.3 hPa | 0 mm | - | 815 W/m² | - |
| 1777756713 | 23.33° C | 15% | 1468.7 hPa | 0 mm | - | 826 W/m² | - |
| 1777756412 | 23.33° C | 15% | 1469.1 hPa | 0 mm | - | 837 W/m² | - |
| 1777756112 | 23.33° C | 14% | 1469.8 hPa | 0 mm | - | 849 W/m² | - |
| 1777755812 | 22.78° C | 16% | 1471.1 hPa | 0 mm | - | 860 W/m² | - |
| 1777755512 | 23.33° C | 15% | 1470.2 hPa | 0 mm | - | 872 W/m² | - |
| 1777755211 | 22.78° C | 17% | 1470.8 hPa | 0 mm | - | 882 W/m² | - |
| 1777754911 | 22.78° C | 17% | 1470.8 hPa | 0 mm | - | 891 W/m² | - |
| 1777754610 | 23.33° C | 17% | 1470.8 hPa | 0 mm | - | 902 W/m² | - |
| 1777754309 | 23.33° C | 17% | 1470.7 hPa | 0 mm | - | 912 W/m² | - |
| 1777754009 | 23.33° C | 17% | 1471 hPa | 0 mm | - | 920 W/m² | - |
| 1777753708 | 22.78° C | 17% | 1471.8 hPa | 0 mm | - | 929 W/m² | - |
* Rain latest hour (hover to see other rain measurements)
** Current wind speed in m/s (hover to see current wind gust speed)